sensor_id;sensor_type;location;lat;lon;timestamp;pressure;altitude;pressure_sealevel;temperature;humidity
71772;BME280;59606;52.138;5.424;2024-02-23T00:02:11;98705.84;;;4.93;100.00
71772;BME280;59606;52.138;5.424;2024-02-23T00:04:39;98713.59;;;4.93;100.00
71772;BME280;59606;52.138;5.424;2024-02-23T00:07:07;98718.75;;;4.93;100.00
71772;BME280;59606;52.138;5.424;2024-02-23T00:09:34;98723.06;;;4.92;100.00
71772;BME280;59606;52.138;5.424;2024-02-23T00:12:01;98716.88;;;4.95;100.00
71772;BME280;59606;52.138;5.424;2024-02-23T00:14:29;98723.50;;;4.99;100.00
71772;BME280;59606;52.138;5.424;2024-02-23T00:16:57;98721.53;;;5.03;100.00
71772;BME280;59606;52.138;5.424;2024-02-23T00:19:25;98727.31;;;5.06;100.00
71772;BME280;59606;52.138;5.424;2024-02-23T00:21:52;98729.50;;;5.12;100.00
71772;BME280;59606;52.138;5.424;2024-02-23T00:24:21;98733.75;;;5.13;100.00
71772;BME280;59606;52.138;5.424;2024-02-23T00:26:48;98734.56;;;5.14;100.00
71772;BME280;59606;52.138;5.424;2024-02-23T00:29:21;98731.16;;;5.13;100.00
71772;BME280;59606;52.138;5.424;2024-02-23T00:31:49;98737.97;;;5.14;100.00
71772;BME280;59606;52.138;5.424;2024-02-23T00:34:16;98747.91;;;5.20;100.00
71772;BME280;59606;52.138;5.424;2024-02-23T00:36:44;98744.56;;;5.18;100.00
71772;BME280;59606;52.138;5.424;2024-02-23T00:39:13;98742.00;;;5.18;100.00
71772;BME280;59606;52.138;5.424;2024-02-23T00:41:40;98753.88;;;5.21;100.00
71772;BME280;59606;52.138;5.424;2024-02-23T00:44:06;98753.97;;;5.19;100.00
71772;BME280;59606;52.138;5.424;2024-02-23T00:46:34;98759.78;;;5.23;100.00
71772;BME280;59606;52.138;5.424;2024-02-23T00:49:01;98751.38;;;5.19;100.00
71772;BME280;59606;52.138;5.424;2024-02-23T00:51:29;98765.84;;;5.22;100.00
71772;BME280;59606;52.138;5.424;2024-02-23T00:53:55;98767.41;;;5.25;100.00
71772;BME280;59606;52.138;5.424;2024-02-23T00:56:22;98765.75;;;5.24;100.00
71772;BME280;59606;52.138;5.424;2024-02-23T00:58:58;98772.38;;;5.28;100.00
71772;BME280;59606;52.138;5.424;2024-02-23T01:01:25;98770.59;;;5.28;100.00
71772;BME280;59606;52.138;5.424;2024-02-23T01:03:59;98777.53;;;5.28;100.00
71772;BME280;59606;52.138;5.424;2024-02-23T01:06:33;98786.91;;;5.29;100.00
71772;BME280;59606;52.138;5.424;2024-02-23T01:09:00;98793.09;;;5.26;100.00
71772;BME280;59606;52.138;5.424;2024-02-23T01:11:30;98810.47;;;5.24;100.00
71772;BME280;59606;52.138;5.424;2024-02-23T01:13:59;98824.41;;;5.22;100.00
71772;BME280;59606;52.138;5.424;2024-02-23T01:16:28;98832.53;;;5.15;100.00
71772;BME280;59606;52.138;5.424;2024-02-23T01:18:54;98818.56;;;5.05;100.00
71772;BME280;59606;52.138;5.424;2024-02-23T01:21:21;98818.75;;;5.02;100.00
71772;BME280;59606;52.138;5.424;2024-02-23T01:23:47;98824.31;;;4.96;100.00
71772;BME280;59606;52.138;5.424;2024-02-23T01:26:14;98827.13;;;4.93;100.00
71772;BME280;59606;52.138;5.424;2024-02-23T01:28:41;98841.03;;;4.90;100.00
71772;BME280;59606;52.138;5.424;2024-02-23T01:31:11;98824.56;;;4.79;100.00
71772;BME280;59606;52.138;5.424;2024-02-23T01:33:39;98828.91;;;4.78;100.00
71772;BME280;59606;52.138;5.424;2024-02-23T01:36:07;98840.69;;;4.82;100.00
71772;BME280;59606;52.138;5.424;2024-02-23T01:38:34;98861.31;;;4.82;100.00
71772;BME280;59606;52.138;5.424;2024-02-23T01:41:01;98853.56;;;4.82;100.00
71772;BME280;59606;52.138;5.424;2024-02-23T01:43:28;98855.25;;;4.83;100.00
71772;BME280;59606;52.138;5.424;2024-02-23T01:45:57;98839.78;;;4.83;100.00
71772;BME280;59606;52.138;5.424;2024-02-23T01:48:24;98845.75;;;4.84;100.00
71772;BME280;59606;52.138;5.424;2024-02-23T01:50:53;98867.97;;;4.86;100.00
71772;BME280;59606;52.138;5.424;2024-02-23T01:53:20;98876.72;;;4.84;100.00
71772;BME280;59606;52.138;5.424;2024-02-23T01:55:50;98887.22;;;4.81;100.00
71772;BME280;59606;52.138;5.424;2024-02-23T01:58:17;98877.53;;;4.84;100.00
71772;BME280;59606;52.138;5.424;2024-02-23T02:00:44;98879.19;;;4.85;100.00
71772;BME280;59606;52.138;5.424;2024-02-23T02:03:11;98879.19;;;4.85;100.00
71772;BME280;59606;52.138;5.424;2024-02-23T02:05:38;98875.59;;;4.88;100.00
71772;BME280;59606;52.138;5.424;2024-02-23T02:08:05;98885.72;;;4.91;100.00
71772;BME280;59606;52.138;5.424;2024-02-23T02:10:32;98890.69;;;4.94;100.00
71772;BME280;59606;52.138;5.424;2024-02-23T02:13:04;98890.97;;;4.89;100.00
71772;BME280;59606;52.138;5.424;2024-02-23T02:15:32;98890.13;;;4.89;100.00
71772;BME280;59606;52.138;5.424;2024-02-23T02:17:58;98885.72;;;4.91;100.00
71772;BME280;59606;52.138;5.424;2024-02-23T02:20:25;98892.63;;;4.90;100.00
71772;BME280;59606;52.138;5.424;2024-02-23T02:22:55;98891.81;;;4.90;100.00
71772;BME280;59606;52.138;5.424;2024-02-23T02:25:21;98894.41;;;4.90;100.00
71772;BME280;59606;52.138;5.424;2024-02-23T02:27:48;98880.00;;;4.86;100.00
71772;BME280;59606;52.138;5.424;2024-02-23T02:30:15;98885.28;;;4.84;100.00
71772;BME280;59606;52.138;5.424;2024-02-23T02:32:42;98887.94;;;4.83;100.00
71772;BME280;59606;52.138;5.424;2024-02-23T02:35:11;98889.88;;;4.79;100.00
71772;BME280;59606;52.138;5.424;2024-02-23T02:37:38;98897.91;;;4.75;100.00
71772;BME280;59606;52.138;5.424;2024-02-23T02:40:06;98884.09;;;4.76;100.00
71772;BME280;59606;52.138;5.424;2024-02-23T02:42:33;98889.53;;;4.71;100.00
71772;BME280;59606;52.138;5.424;2024-02-23T02:45:00;98896.47;;;4.70;100.00
71772;BME280;59606;52.138;5.424;2024-02-23T02:47:27;98889.84;;;4.66;100.00
71772;BME280;59606;52.138;5.424;2024-02-23T02:49:54;98894.38;;;4.63;100.00
71772;BME280;59606;52.138;5.424;2024-02-23T02:52:20;98908.09;;;4.63;100.00
71772;BME280;59606;52.138;5.424;2024-02-23T02:54:50;98910.03;;;4.60;100.00
71772;BME280;59606;52.138;5.424;2024-02-23T02:57:23;98914.31;;;4.59;100.00
71772;BME280;59606;52.138;5.424;2024-02-23T02:59:51;98899.97;;;4.55;100.00
71772;BME280;59606;52.138;5.424;2024-02-23T03:02:18;98908.44;;;4.57;100.00
71772;BME280;59606;52.138;5.424;2024-02-23T03:04:48;98909.56;;;4.53;100.00
71772;BME280;59606;52.138;5.424;2024-02-23T03:07:17;98908.53;;;4.56;100.00
71772;BME280;59606;52.138;5.424;2024-02-23T03:09:43;98904.31;;;4.55;100.00
71772;BME280;59606;52.138;5.424;2024-02-23T03:12:10;98909.38;;;4.56;100.00
71772;BME280;59606;52.138;5.424;2024-02-23T03:14:37;98920.59;;;4.55;100.00
71772;BME280;59606;52.138;5.424;2024-02-23T03:17:07;98927.50;;;4.55;100.00
71772;BME280;59606;52.138;5.424;2024-02-23T03:19:34;98932.59;;;4.56;100.00
71772;BME280;59606;52.138;5.424;2024-02-23T03:22:01;98925.69;;;4.57;100.00
71772;BME280;59606;52.138;5.424;2024-02-23T03:24:27;98931.66;;;4.57;100.00
71772;BME280;59606;52.138;5.424;2024-02-23T03:26:54;98934.50;;;4.53;100.00
71772;BME280;59606;52.138;5.424;2024-02-23T03:29:22;98933.59;;;4.54;100.00
71772;BME280;59606;52.138;5.424;2024-02-23T03:31:56;98923.47;;;4.51;100.00
71772;BME280;59606;52.138;5.424;2024-02-23T03:34:25;98922.66;;;4.50;100.00
71772;BME280;59606;52.138;5.424;2024-02-23T03:36:52;98932.31;;;4.46;100.00
71772;BME280;59606;52.138;5.424;2024-02-23T03:39:22;98938.56;;;4.42;100.00
71772;BME280;59606;52.138;5.424;2024-02-23T03:41:49;98932.75;;;4.39;100.00
71772;BME280;59606;52.138;5.424;2024-02-23T03:44:18;98946.03;;;4.33;100.00
71772;BME280;59606;52.138;5.424;2024-02-23T03:46:45;98942.59;;;4.32;100.00
71772;BME280;59606;52.138;5.424;2024-02-23T03:49:12;98962.31;;;4.33;100.00
71772;BME280;59606;52.138;5.424;2024-02-23T03:51:41;98953.19;;;4.28;100.00
71772;BME280;59606;52.138;5.424;2024-02-23T03:54:07;98960.09;;;4.27;100.00
71772;BME280;59606;52.138;5.424;2024-02-23T03:56:38;98950.63;;;4.28;100.00
71772;BME280;59606;52.138;5.424;2024-02-23T03:59:09;98943.81;;;4.27;100.00
71772;BME280;59606;52.138;5.424;2024-02-23T04:01:38;98946.56;;;4.23;100.00
71772;BME280;59606;52.138;5.424;2024-02-23T04:04:06;98956.88;;;4.23;100.00
71772;BME280;59606;52.138;5.424;2024-02-23T04:06:34;98949.97;;;4.24;100.00
71772;BME280;59606;52.138;5.424;2024-02-23T04:09:01;98956.13;;;4.21;100.00
71772;BME280;59606;52.138;5.424;2024-02-23T04:11:28;98964.97;;;4.17;100.00
71772;BME280;59606;52.138;5.424;2024-02-23T04:13:55;98965.06;;;4.16;100.00
71772;BME280;59606;52.138;5.424;2024-02-23T04:16:23;98961.75;;;4.14;100.00
71772;BME280;59606;52.138;5.424;2024-02-23T04:18:51;98956.88;;;4.09;100.00
71772;BME280;59606;52.138;5.424;2024-02-23T04:21:17;98968.06;;;4.08;100.00
71772;BME280;59606;52.138;5.424;2024-02-23T04:23:44;98974.81;;;4.11;100.00
71772;BME280;59606;52.138;5.424;2024-02-23T04:26:11;98978.22;;;4.11;100.00
71772;BME280;59606;52.138;5.424;2024-02-23T04:28:39;98974.16;;;4.07;100.00
71772;BME280;59606;52.138;5.424;2024-02-23T04:31:06;98969.81;;;4.08;100.00
71772;BME280;59606;52.138;5.424;2024-02-23T04:33:36;98974.97;;;4.08;100.00
71772;BME280;59606;52.138;5.424;2024-02-23T04:36:04;98971.59;;;4.07;100.00
71772;BME280;59606;52.138;5.424;2024-02-23T04:38:31;98975.09;;;4.06;100.00
71772;BME280;59606;52.138;5.424;2024-02-23T04:40:58;98977.66;;;4.06;100.00
71772;BME280;59606;52.138;5.424;2024-02-23T04:43:25;98985.63;;;4.01;100.00
71772;BME280;59606;52.138;5.424;2024-02-23T04:45:52;98990.97;;;3.98;100.00
71772;BME280;59606;52.138;5.424;2024-02-23T04:48:19;98993.00;;;3.93;100.00
71772;BME280;59606;52.138;5.424;2024-02-23T04:50:46;99005.88;;;3.93;100.00
71772;BME280;59606;52.138;5.424;2024-02-23T04:53:12;98997.31;;;3.93;100.00
71772;BME280;59606;52.138;5.424;2024-02-23T04:55:52;99000.63;;;3.95;100.00
71772;BME280;59606;52.138;5.424;2024-02-23T04:58:30;99002.94;;;3.99;100.00
71772;BME280;59606;52.138;5.424;2024-02-23T05:00:57;99010.56;;;4.01;100.00
71772;BME280;59606;52.138;5.424;2024-02-23T05:03:24;99001.75;;;4.05;100.00
71772;BME280;59606;52.138;5.424;2024-02-23T05:05:50;99002.41;;;4.09;100.00
71772;BME280;59606;52.138;5.424;2024-02-23T05:08:20;99007.47;;;4.10;100.00
71772;BME280;59606;52.138;5.424;2024-02-23T05:10:48;99001.50;;;4.10;100.00
71772;BME280;59606;52.138;5.424;2024-02-23T05:13:15;99002.06;;;4.15;100.00
71772;BME280;59606;52.138;5.424;2024-02-23T05:15:41;98996.19;;;4.13;100.00
71772;BME280;59606;52.138;5.424;2024-02-23T05:18:08;99003.53;;;4.19;100.00
71772;BME280;59606;52.138;5.424;2024-02-23T05:20:35;99001.81;;;4.19;100.00
71772;BME280;59606;52.138;5.424;2024-02-23T05:23:02;98995.72;;;4.20;100.00
71772;BME280;59606;52.138;5.424;2024-02-23T05:25:28;98989.91;;;4.17;100.00
71772;BME280;59606;52.138;5.424;2024-02-23T05:27:55;98995.63;;;4.22;100.00
71772;BME280;59606;52.138;5.424;2024-02-23T05:30:22;99002.44;;;4.23;100.00
71772;BME280;59606;52.138;5.424;2024-02-23T05:32:48;98996.44;;;4.22;100.00
71772;BME280;59606;52.138;5.424;2024-02-23T05:35:15;99002.44;;;4.23;100.00
71772;BME280;59606;52.138;5.424;2024-02-23T05:37:42;99001.53;;;4.24;100.00
71772;BME280;59606;52.138;5.424;2024-02-23T05:40:09;98997.13;;;4.26;100.00
71772;BME280;59606;52.138;5.424;2024-02-23T05:42:38;98994.44;;;4.28;100.00
71772;BME280;59606;52.138;5.424;2024-02-23T05:45:07;99004.56;;;4.31;100.00
71772;BME280;59606;52.138;5.424;2024-02-23T05:47:36;98997.84;;;4.28;100.00
71772;BME280;59606;52.138;5.424;2024-02-23T05:50:04;99003.66;;;4.32;100.00
71772;BME280;59606;52.138;5.424;2024-02-23T05:52:32;99005.31;;;4.33;100.00
71772;BME280;59606;52.138;5.424;2024-02-23T05:54:59;99000.16;;;4.33;100.00
71772;BME280;59606;52.138;5.424;2024-02-23T05:57:26;99001.88;;;4.32;100.00
71772;BME280;59606;52.138;5.424;2024-02-23T05:59:53;98995.84;;;4.33;100.00
71772;BME280;59606;52.138;5.424;2024-02-23T06:02:22;98998.41;;;4.33;100.00
71772;BME280;59606;52.138;5.424;2024-02-23T06:04:49;98993.16;;;4.35;100.00
71772;BME280;59606;52.138;5.424;2024-02-23T06:07:16;99000.06;;;4.34;100.00
71772;BME280;59606;52.138;5.424;2024-02-23T06:09:43;99000.81;;;4.36;100.00
71772;BME280;59606;52.138;5.424;2024-02-23T06:12:10;98998.97;;;4.38;100.00
71772;BME280;59606;52.138;5.424;2024-02-23T06:14:36;99000.53;;;4.41;100.00
71772;BME280;59606;52.138;5.424;2024-02-23T06:17:03;99002.19;;;4.42;100.00
71772;BME280;59606;52.138;5.424;2024-02-23T06:19:30;99009.09;;;4.41;100.00
71772;BME280;59606;52.138;5.424;2024-02-23T06:21:57;99006.44;;;4.43;100.00
71772;BME280;59606;52.138;5.424;2024-02-23T06:24:23;99010.56;;;4.45;100.00
71772;BME280;59606;52.138;5.424;2024-02-23T06:26:50;99007.97;;;4.45;100.00
71772;BME280;59606;52.138;5.424;2024-02-23T06:29:18;99007.16;;;4.45;100.00
71772;BME280;59606;52.138;5.424;2024-02-23T06:31:45;99012.97;;;4.48;100.00
71772;BME280;59606;52.138;5.424;2024-02-23T06:34:16;99012.97;;;4.48;100.00
71772;BME280;59606;52.138;5.424;2024-02-23T06:36:43;99019.69;;;4.51;100.00
71772;BME280;59606;52.138;5.424;2024-02-23T06:39:09;99018.75;;;4.52;100.00
71772;BME280;59606;52.138;5.424;2024-02-23T06:41:38;99021.34;;;4.52;100.00
71772;BME280;59606;52.138;5.424;2024-02-23T06:44:08;99017.69;;;4.56;100.00
71772;BME280;59606;52.138;5.424;2024-02-23T06:46:37;99017.59;;;4.58;100.00
71772;BME280;59606;52.138;5.424;2024-02-23T06:49:04;99026.91;;;4.60;100.00
71772;BME280;59606;52.138;5.424;2024-02-23T06:51:31;99025.13;;;4.61;100.00
71772;BME280;59606;52.138;5.424;2024-02-23T06:53:58;99019.06;;;4.62;100.00
71772;BME280;59606;52.138;5.424;2024-02-23T06:56:24;99019.69;;;4.65;100.00
71772;BME280;59606;52.138;5.424;2024-02-23T06:58:51;99022.28;;;4.65;100.00
71772;BME280;59606;52.138;5.424;2024-02-23T07:01:20;99017.03;;;4.67;100.00
71772;BME280;59606;52.138;5.424;2024-02-23T07:03:49;99012.53;;;4.70;100.00
71772;BME280;59606;52.138;5.424;2024-02-23T07:06:17;99017.69;;;4.70;100.00
71772;BME280;59606;52.138;5.424;2024-02-23T07:08:45;99009.84;;;4.72;100.00
71772;BME280;59606;52.138;5.424;2024-02-23T07:11:14;99015.75;;;4.74;100.00
71772;BME280;59606;52.138;5.424;2024-02-23T07:13:43;99011.41;;;4.75;100.00
71772;BME280;59606;52.138;5.424;2024-02-23T07:16:11;99018.22;;;4.76;100.00
71772;BME280;59606;52.138;5.424;2024-02-23T07:18:40;99018.97;;;4.78;100.00
71772;BME280;59606;52.138;5.424;2024-02-23T07:21:07;99022.31;;;4.80;100.00
71772;BME280;59606;52.138;5.424;2024-02-23T07:23:38;99015.47;;;4.79;100.00
71772;BME280;59606;52.138;5.424;2024-02-23T07:26:05;99019.72;;;4.80;100.00
71772;BME280;59606;52.138;5.424;2024-02-23T07:28:32;99015.28;;;4.82;100.00
71772;BME280;59606;52.138;5.424;2024-02-23T07:31:03;99013.25;;;4.87;100.00
71772;BME280;59606;52.138;5.424;2024-02-23T07:33:30;99027.72;;;4.89;100.00
71772;BME280;59606;52.138;5.424;2024-02-23T07:36:04;99018.06;;;4.93;100.00
71772;BME280;59606;52.138;5.424;2024-02-23T07:38:34;99010.22;;;4.94;100.00
71772;BME280;59606;52.138;5.424;2024-02-23T07:41:01;99016.94;;;4.97;100.00
71772;BME280;59606;52.138;5.424;2024-02-23T07:43:30;99003.94;;;4.99;100.00
71772;BME280;59606;52.138;5.424;2024-02-23T07:45:57;99000.34;;;5.01;100.00
71772;BME280;59606;52.138;5.424;2024-02-23T07:48:30;98999.31;;;5.04;100.00
71772;BME280;59606;52.138;5.424;2024-02-23T07:50:57;98995.63;;;5.08;100.00
71772;BME280;59606;52.138;5.424;2024-02-23T07:53:31;98990.91;;;5.14;100.00
71772;BME280;59606;52.138;5.424;2024-02-23T07:56:08;98984.63;;;5.18;100.00
71772;BME280;59606;52.138;5.424;2024-02-23T07:58:34;98992.19;;;5.22;100.00
71772;BME280;59606;52.138;5.424;2024-02-23T08:01:03;98995.59;;;5.22;100.00
71772;BME280;59606;52.138;5.424;2024-02-23T08:03:30;98993.75;;;5.24;100.00
71772;BME280;59606;52.138;5.424;2024-02-23T08:06:07;98980.03;;;5.24;100.00
71772;BME280;59606;52.138;5.424;2024-02-23T08:08:35;98977.25;;;5.27;100.00
71772;BME280;59606;52.138;5.424;2024-02-23T08:11:05;98984.06;;;5.28;100.00
71772;BME280;59606;52.138;5.424;2024-02-23T08:13:32;98977.25;;;5.27;100.00
71772;BME280;59606;52.138;5.424;2024-02-23T08:15:59;98976.22;;;5.29;100.00
71772;BME280;59606;52.138;5.424;2024-02-23T08:18:34;98970.03;;;5.32;100.00
71772;BME280;59606;52.138;5.424;2024-02-23T08:21:04;98981.81;;;5.36;100.00
71772;BME280;59606;52.138;5.424;2024-02-23T08:23:32;98983.38;;;5.38;100.00
71772;BME280;59606;52.138;5.424;2024-02-23T08:26:02;98974.69;;;5.39;100.00
71772;BME280;59606;52.138;5.424;2024-02-23T08:28:28;98979.78;;;5.41;100.00
71772;BME280;59606;52.138;5.424;2024-02-23T08:30:55;98979.66;;;5.42;100.00
71772;BME280;59606;52.138;5.424;2024-02-23T08:33:23;98974.63;;;5.41;100.00
71772;BME280;59606;52.138;5.424;2024-02-23T08:35:50;98974.63;;;5.41;100.00
71772;BME280;59606;52.138;5.424;2024-02-23T08:38:29;98980.78;;;5.38;100.00
71772;BME280;59606;52.138;5.424;2024-02-23T08:40:56;98971.28;;;5.39;100.00
71772;BME280;59606;52.138;5.424;2024-02-23T08:43:30;98975.63;;;5.38;100.00
71772;BME280;59606;52.138;5.424;2024-02-23T08:46:06;98972.97;;;5.40;100.00
71772;BME280;59606;52.138;5.424;2024-02-23T08:48:35;98954.91;;;5.40;100.00
71772;BME280;59606;52.138;5.424;2024-02-23T08:51:03;98954.97;;;5.38;100.00
71772;BME280;59606;52.138;5.424;2024-02-23T08:53:29;98954.16;;;5.38;100.00
71772;BME280;59606;52.138;5.424;2024-02-23T08:55:56;98961.78;;;5.39;100.00
71772;BME280;59606;52.138;5.424;2024-02-23T08:58:29;98967.88;;;5.38;100.00
71772;BME280;59606;52.138;5.424;2024-02-23T09:00:56;98961.06;;;5.37;100.00
71772;BME280;59606;52.138;5.424;2024-02-23T09:03:30;98964.69;;;5.35;100.00
71772;BME280;59606;52.138;5.424;2024-02-23T09:06:07;98965.59;;;5.34;100.00
71772;BME280;59606;52.138;5.424;2024-02-23T09:08:34;98970.78;;;5.34;100.00
71772;BME280;59606;52.138;5.424;2024-02-23T09:11:04;98972.41;;;5.35;100.00
71772;BME280;59606;52.138;5.424;2024-02-23T09:13:30;98962.91;;;5.35;100.00
71772;BME280;59606;52.138;5.424;2024-02-23T09:16:06;98980.06;;;5.36;100.00
71772;BME280;59606;52.138;5.424;2024-02-23T09:18:35;98987.72;;;5.38;100.00
71772;BME280;59606;52.138;5.424;2024-02-23T09:21:04;98979.16;;;5.37;100.00
71772;BME280;59606;52.138;5.424;2024-02-23T09:23:31;98983.50;;;5.37;100.00
71772;BME280;59606;52.138;5.424;2024-02-23T09:26:08;98991.94;;;5.39;100.00
71772;BME280;59606;52.138;5.424;2024-02-23T09:28:35;98979.03;;;5.39;100.00
71772;BME280;59606;52.138;5.424;2024-02-23T09:31:02;98989.19;;;5.42;100.00
71772;BME280;59606;52.138;5.424;2024-02-23T09:33:30;98981.25;;;5.45;100.00
71772;BME280;59606;52.138;5.424;2024-02-23T09:36:04;98980.22;;;5.48;100.00
71772;BME280;59606;52.138;5.424;2024-02-23T09:38:31;98980.22;;;5.48;100.00
71772;BME280;59606;52.138;5.424;2024-02-23T09:41:07;98982.81;;;5.48;100.00
71772;BME280;59606;52.138;5.424;2024-02-23T09:43:38;98982.81;;;5.48;100.00
71772;BME280;59606;52.138;5.424;2024-02-23T09:46:04;98987.03;;;5.49;100.00
71772;BME280;59606;52.138;5.424;2024-02-23T09:48:31;98994.06;;;5.47;100.00
71772;BME280;59606;52.138;5.424;2024-02-23T09:51:02;99000.97;;;5.46;100.00
71772;BME280;59606;52.138;5.424;2024-02-23T09:53:37;99004.28;;;5.48;100.00
71772;BME280;59606;52.138;5.424;2024-02-23T09:56:05;99006.75;;;5.50;100.00
71772;BME280;59606;52.138;5.424;2024-02-23T09:58:32;99020.59;;;5.49;100.00
71772;BME280;59606;52.138;5.424;2024-02-23T10:01:02;99016.19;;;5.51;100.00
71772;BME280;59606;52.138;5.424;2024-02-23T10:03:32;99023.56;;;5.57;100.00
71772;BME280;59606;52.138;5.424;2024-02-23T10:06:05;99008.50;;;5.63;100.00
71772;BME280;59606;52.138;5.424;2024-02-23T10:08:33;99009.34;;;5.77;100.00
71772;BME280;59606;52.138;5.424;2024-02-23T10:11:03;99000.09;;;5.87;100.00
71772;BME280;59606;52.138;5.424;2024-02-23T10:13:30;99016.47;;;6.00;100.00
71772;BME280;59606;52.138;5.424;2024-02-23T10:15:57;99009.25;;;6.05;100.00
71772;BME280;59606;52.138;5.424;2024-02-23T10:18:41;99020.53;;;6.04;100.00
71772;BME280;59606;52.138;5.424;2024-02-23T10:21:08;99017.75;;;6.07;100.00
71772;BME280;59606;52.138;5.424;2024-02-23T10:23:35;99015.84;;;6.09;100.00
71772;BME280;59606;52.138;5.424;2024-02-23T10:26:10;99015.78;;;6.11;100.00
71772;BME280;59606;52.138;5.424;2024-02-23T10:28:46;99025.06;;;6.13;100.00
71772;BME280;59606;52.138;5.424;2024-02-23T10:31:18;99017.09;;;6.17;100.00
71772;BME280;59606;52.138;5.424;2024-02-23T10:33:45;99031.72;;;6.18;100.00
71772;BME280;59606;52.138;5.424;2024-02-23T10:36:17;99030.97;;;6.16;100.00
71772;BME280;59606;52.138;5.424;2024-02-23T10:38:45;99037.28;;;6.11;100.00
71772;BME280;59606;52.138;5.424;2024-02-23T10:41:17;99047.81;;;6.08;100.00
71772;BME280;59606;52.138;5.424;2024-02-23T10:43:47;99047.91;;;6.07;100.00
71772;BME280;59606;52.138;5.424;2024-02-23T10:46:15;99057.63;;;6.03;100.00
71772;BME280;59606;52.138;5.424;2024-02-23T10:48:45;99046.56;;;6.01;100.00
71772;BME280;59606;52.138;5.424;2024-02-23T10:51:14;99062.06;;;6.01;100.00
71772;BME280;59606;52.138;5.424;2024-02-23T10:53:46;99062.16;;;6.00;100.00
71772;BME280;59606;52.138;5.424;2024-02-23T10:56:15;99050.91;;;6.01;100.00
71772;BME280;59606;52.138;5.424;2024-02-23T10:58:42;99062.69;;;6.05;100.00
71772;BME280;59606;52.138;5.424;2024-02-23T11:01:13;99065.09;;;6.08;100.00
71772;BME280;59606;52.138;5.424;2024-02-23T11:03:42;99058.78;;;6.12;100.00
71772;BME280;59606;52.138;5.424;2024-02-23T11:06:11;99058.91;;;6.23;100.00
71772;BME280;59606;52.138;5.424;2024-02-23T11:08:38;99078.69;;;6.37;100.00
71772;BME280;59606;52.138;5.424;2024-02-23T11:11:10;99069.50;;;6.46;100.00
71772;BME280;59606;52.138;5.424;2024-02-23T11:13:42;99062.78;;;6.56;100.00
71772;BME280;59606;52.138;5.424;2024-02-23T11:16:09;99069.31;;;6.61;100.00
71772;BME280;59606;52.138;5.424;2024-02-23T11:18:39;99063.19;;;6.63;100.00
71772;BME280;59606;52.138;5.424;2024-02-23T11:21:09;99071.50;;;6.68;100.00
71772;BME280;59606;52.138;5.424;2024-02-23T11:23:49;99050.16;;;6.77;100.00
71772;BME280;59606;52.138;5.424;2024-02-23T11:26:17;99071.38;;;6.82;100.00
71772;BME280;59606;52.138;5.424;2024-02-23T11:28:49;99062.16;;;6.91;100.00
71772;BME280;59606;52.138;5.424;2024-02-23T11:31:20;99059.88;;;6.99;100.00
71772;BME280;59606;52.138;5.424;2024-02-23T11:33:53;99065.16;;;7.10;100.00
71772;BME280;59606;52.138;5.424;2024-02-23T11:36:29;99052.38;;;7.20;100.00
71772;BME280;59606;52.138;5.424;2024-02-23T11:38:57;99067.38;;;7.27;100.00
71772;BME280;59606;52.138;5.424;2024-02-23T11:41:25;99049.91;;;7.31;100.00
71772;BME280;59606;52.138;5.424;2024-02-23T11:43:53;99059.72;;;7.39;100.00
71772;BME280;59606;52.138;5.424;2024-02-23T11:46:22;99058.22;;;7.47;100.00
71772;BME280;59606;52.138;5.424;2024-02-23T11:48:49;99077.34;;;7.57;100.00
71772;BME280;59606;52.138;5.424;2024-02-23T11:51:21;99070.53;;;7.56;100.00
71772;BME280;59606;52.138;5.424;2024-02-23T11:53:49;99074.16;;;7.54;100.00
71772;BME280;59606;52.138;5.424;2024-02-23T11:56:16;99082.66;;;7.56;100.00
71772;BME280;59606;52.138;5.424;2024-02-23T11:58:43;99074.88;;;7.56;100.00
71772;BME280;59606;52.138;5.424;2024-02-23T12:01:10;99071.34;;;7.57;100.00
71772;BME280;59606;52.138;5.424;2024-02-23T12:03:37;99071.47;;;7.55;100.00
71772;BME280;59606;52.138;5.424;2024-02-23T12:06:06;99075.22;;;7.51;100.00
71772;BME280;59606;52.138;5.424;2024-02-23T12:08:33;99061.41;;;7.51;100.00
71772;BME280;59606;52.138;5.424;2024-02-23T12:11:07;99083.00;;;7.51;100.00
71772;BME280;59606;52.138;5.424;2024-02-23T12:13:35;99084.25;;;7.46;100.00
71772;BME280;59606;52.138;5.424;2024-02-23T12:16:02;99079.41;;;7.41;100.00
71772;BME280;59606;52.138;5.424;2024-02-23T12:18:33;99083.63;;;7.42;100.00
71772;BME280;59606;52.138;5.424;2024-02-23T12:21:07;99094.50;;;7.47;100.00
71772;BME280;59606;52.138;5.424;2024-02-23T12:23:39;99073.47;;;7.52;100.00
71772;BME280;59606;52.138;5.424;2024-02-23T12:26:06;99082.78;;;7.54;100.00
71772;BME280;59606;52.138;5.424;2024-02-23T12:31:41;99079.84;;;7.59;100.00
71772;BME280;59606;52.138;5.424;2024-02-23T12:34:11;99095.81;;;7.66;100.00
71772;BME280;59606;52.138;5.424;2024-02-23T12:36:39;99094.97;;;7.65;100.00
71772;BME280;59606;52.138;5.424;2024-02-23T12:39:08;99082.41;;;7.72;100.00
71772;BME280;59606;52.138;5.424;2024-02-23T12:41:35;99101.16;;;7.75;100.00
71772;BME280;59606;52.138;5.424;2024-02-23T12:44:02;99099.28;;;7.77;100.00
71772;BME280;59606;52.138;5.424;2024-02-23T12:46:29;99085.41;;;7.78;100.00
71772;BME280;59606;52.138;5.424;2024-02-23T12:48:59;99098.22;;;7.80;100.00
71772;BME280;59606;52.138;5.424;2024-02-23T12:51:31;99107.44;;;7.84;100.00
71772;BME280;59606;52.138;5.424;2024-02-23T12:54:00;99098.22;;;7.80;100.00
71772;BME280;59606;52.138;5.424;2024-02-23T12:56:30;99099.28;;;7.77;100.00
71772;BME280;59606;52.138;5.424;2024-02-23T12:58:57;99101.88;;;7.77;100.00
71772;BME280;59606;52.138;5.424;2024-02-23T13:01:24;99099.19;;;7.79;100.00
71772;BME280;59606;52.138;5.424;2024-02-23T13:03:53;99107.66;;;7.81;100.00
71772;BME280;59606;52.138;5.424;2024-02-23T13:06:20;99102.16;;;7.86;100.00
71772;BME280;59606;52.138;5.424;2024-02-23T13:08:47;99117.38;;;7.90;100.00
71772;BME280;59606;52.138;5.424;2024-02-23T13:11:13;99113.97;;;7.90;100.00